createdAt,value
2022-12-11T00:01:24.974Z,98.01
2022-12-11T00:03:52.320Z,97.22
2022-12-11T00:06:22.364Z,97.54
2022-12-11T00:08:53.546Z,97.70
2022-12-11T00:11:22.293Z,97.86
2022-12-11T00:13:49.845Z,97.67
2022-12-11T00:16:17.198Z,97.40
2022-12-11T00:18:45.868Z,97.23
2022-12-11T00:21:14.985Z,97.51
2022-12-11T00:23:42.408Z,97.18
2022-12-11T00:26:14.550Z,97.10
2022-12-11T00:28:42.079Z,97.34
2022-12-11T00:31:13.718Z,97.62
2022-12-11T00:33:42.016Z,97.85
2022-12-11T00:36:14.348Z,97.62
2022-12-11T00:38:42.669Z,97.08
2022-12-11T00:41:10.088Z,97.12
2022-12-11T00:43:37.721Z,97.35
2022-12-11T00:46:05.353Z,97.44
2022-12-11T00:48:33.154Z,97.31
2022-12-11T00:51:00.855Z,97.52
2022-12-11T00:53:29.560Z,97.24
2022-12-11T00:55:56.801Z,97.28
2022-12-11T00:58:24.489Z,97.22
2022-12-11T01:00:52.378Z,97.22
2022-12-11T01:03:19.595Z,97.28
2022-12-11T01:05:53.630Z,97.09
2022-12-11T01:08:21.369Z,97.46
2022-12-11T01:10:50.129Z,97.40
2022-12-11T01:13:17.791Z,97.93
2022-12-11T01:15:45.971Z,97.68
2022-12-11T01:18:15.396Z,97.56
2022-12-11T01:20:43.215Z,97.67
2022-12-11T01:23:13.141Z,97.35
2022-12-11T01:25:41.963Z,97.34
2022-12-11T01:28:11.370Z,97.51
2022-12-11T01:30:41.685Z,97.62
2022-12-11T01:33:09.079Z,97.28
2022-12-11T01:35:36.647Z,97.14
2022-12-11T01:38:03.894Z,97.09
2022-12-11T01:40:31.102Z,96.87
2022-12-11T01:42:58.437Z,97.16
2022-12-11T01:45:44.881Z,97.09
2022-12-11T01:48:16.179Z,97.26
2022-12-11T01:50:47.844Z,96.80
2022-12-11T01:53:21.262Z,97.04
2022-12-11T01:55:51.417Z,96.75
2022-12-11T01:58:20.191Z,96.84
2022-12-11T02:00:49.151Z,96.84
2022-12-11T02:03:16.612Z,96.55
2022-12-11T02:05:44.077Z,96.80
2022-12-11T02:08:12.052Z,96.98
2022-12-11T02:10:52.662Z,96.93
2022-12-11T02:13:28.072Z,96.70
2022-12-11T02:16:05.030Z,97.32
2022-12-11T02:18:36.862Z,97.03
2022-12-11T02:21:11.078Z,97.04
2022-12-11T02:24:03.731Z,96.88
2022-12-11T02:26:40.683Z,96.79
2022-12-11T02:29:16.614Z,96.85
2022-12-11T02:31:48.239Z,96.76
2022-12-11T02:34:21.840Z,96.75
2022-12-11T02:36:52.230Z,96.82
2022-12-11T02:39:22.669Z,96.37
2022-12-11T02:41:51.407Z,96.37
2022-12-11T02:44:24.953Z,96.69
2022-12-11T02:46:53.573Z,96.42
2022-12-11T02:49:23.210Z,96.56
2022-12-11T02:51:52.944Z,96.27
2022-12-11T02:54:25.535Z,96.19
2022-12-11T02:56:59.120Z,96.33
2022-12-11T02:59:46.813Z,96.59
2022-12-11T03:02:17.286Z,96.95
2022-12-11T03:04:46.046Z,96.88
2022-12-11T03:07:18.064Z,96.98
2022-12-11T03:09:47.289Z,96.88
2022-12-11T03:12:17.830Z,96.92
2022-12-11T03:14:46.783Z,96.87
2022-12-11T03:17:17.025Z,96.84
2022-12-11T03:19:51.303Z,97.04
2022-12-11T03:22:22.248Z,96.78
2022-12-11T03:24:53.369Z,96.71
2022-12-11T03:27:32.728Z,96.47
2022-12-11T03:30:08.045Z,96.86
2022-12-11T03:32:40.810Z,96.78
2022-12-11T03:35:14.603Z,96.94
2022-12-11T03:37:43.599Z,97.12
2022-12-11T03:40:13.678Z,97.24
2022-12-11T03:42:44.513Z,97.18
2022-12-11T03:45:14.435Z,96.88
2022-12-11T03:47:43.452Z,97.36
2022-12-11T03:50:14.626Z,97.25
2022-12-11T03:52:46.131Z,97.05
2022-12-11T03:55:17.150Z,97.16
2022-12-11T03:57:45.013Z,97.12
2022-12-11T04:00:16.569Z,96.82
2022-12-11T04:02:44.810Z,97.15
2022-12-11T04:05:12.716Z,97.25
2022-12-11T04:07:40.207Z,97.04
2022-12-11T04:10:08.046Z,97.14
2022-12-11T04:12:35.234Z,96.82
2022-12-11T04:15:02.844Z,96.80
2022-12-11T04:18:15.580Z,96.76
2022-12-11T04:21:00.996Z,97.03
2022-12-11T04:23:46.689Z,96.96
2022-12-11T04:26:16.656Z,96.84
2022-12-11T04:28:45.138Z,96.98
2022-12-11T04:31:13.135Z,97.03
2022-12-11T04:33:42.123Z,97.08
2022-12-11T04:36:10.760Z,96.75
2022-12-11T04:38:38.142Z,96.69
2022-12-11T04:41:07.605Z,96.72
2022-12-11T04:43:35.191Z,96.58
2022-12-11T04:46:03.433Z,96.61
2022-12-11T04:48:30.664Z,96.92
2022-12-11T04:51:02.493Z,96.89
2022-12-11T04:53:30.139Z,96.86
2022-12-11T04:55:57.380Z,96.92
2022-12-11T04:58:25.796Z,96.97
2022-12-11T05:00:53.731Z,96.75
2022-12-11T05:03:21.119Z,96.58
2022-12-11T05:05:49.498Z,96.49
2022-12-11T05:08:19.216Z,96.80
2022-12-11T05:10:55.540Z,96.64
2022-12-11T05:13:22.849Z,96.54
2022-12-11T05:15:50.307Z,96.24
2022-12-11T05:18:17.677Z,96.96
2022-12-11T05:20:45.198Z,96.88
2022-12-11T05:23:12.407Z,96.85
2022-12-11T05:25:41.048Z,96.99
2022-12-11T05:28:08.590Z,97.10
2022-12-11T05:30:35.809Z,96.85
2022-12-11T05:33:02.999Z,96.55
2022-12-11T05:35:30.287Z,96.57
2022-12-11T05:37:58.399Z,96.89
2022-12-11T05:40:25.719Z,96.57
2022-12-11T05:42:55.767Z,96.91
2022-12-11T05:45:22.975Z,96.68
2022-12-11T05:47:50.318Z,96.26
2022-12-11T05:50:17.870Z,96.76
2022-12-11T05:52:45.139Z,96.38
2022-12-11T05:55:12.625Z,96.27
2022-12-11T05:57:39.978Z,96.66
2022-12-11T06:00:10.476Z,96.34
2022-12-11T06:02:37.851Z,96.72
2022-12-11T06:05:05.843Z,96.74
2022-12-11T06:07:33.125Z,96.91
2022-12-11T06:10:00.376Z,96.92
2022-12-11T06:12:28.483Z,96.78
2022-12-11T06:14:56.199Z,96.67
2022-12-11T06:17:24.821Z,96.17
2022-12-11T06:19:52.086Z,96.31
2022-12-11T06:22:19.537Z,96.72
2022-12-11T06:24:46.769Z,96.91
2022-12-11T06:27:14.139Z,96.47
2022-12-11T06:29:41.573Z,96.78
2022-12-11T06:32:08.866Z,96.28
2022-12-11T06:34:37.642Z,96.61
2022-12-11T06:37:04.907Z,96.99
2022-12-11T06:39:32.447Z,96.30
2022-12-11T06:41:59.647Z,96.40
2022-12-11T06:44:27.235Z,96.40
2022-12-11T06:46:54.559Z,96.40
2022-12-11T06:49:22.011Z,96.28
2022-12-11T06:51:50.732Z,96.55
2022-12-11T06:54:17.918Z,96.20
2022-12-11T06:56:45.161Z,96.42
2022-12-11T06:59:12.914Z,96.12
2022-12-11T07:01:41.098Z,96.58
2022-12-11T07:04:09.694Z,96.29
2022-12-11T07:06:36.974Z,96.72
2022-12-11T07:09:06.686Z,96.68
2022-12-11T07:11:33.958Z,96.48
2022-12-11T07:14:01.356Z,96.30
2022-12-11T07:16:28.647Z,96.16
2022-12-11T07:18:56.222Z,96.45
2022-12-11T07:21:23.503Z,96.44
2022-12-11T07:23:50.890Z,96.14
2022-12-11T07:26:21.761Z,96.65
2022-12-11T07:28:49.969Z,95.60
2022-12-11T07:31:19.564Z,96.40
2022-12-11T07:33:47.372Z,96.36
2022-12-11T07:36:16.402Z,96.17
2022-12-11T07:38:43.660Z,96.10
2022-12-11T07:41:13.817Z,95.92
2022-12-11T07:43:43.040Z,95.87
2022-12-11T07:46:13.302Z,96.12
2022-12-11T07:48:42.368Z,95.61
2022-12-11T07:51:11.157Z,95.52
2022-12-11T07:53:39.358Z,95.97
2022-12-11T07:56:07.650Z,95.91
2022-12-11T07:58:35.083Z,96.04
2022-12-11T08:01:03.821Z,95.55
2022-12-11T08:03:31.165Z,95.71
2022-12-11T08:05:58.438Z,95.75
2022-12-11T08:08:25.678Z,96.37
2022-12-11T08:10:53.036Z,95.74
2022-12-11T08:13:20.426Z,95.89
2022-12-11T08:15:49.118Z,96.38
2022-12-11T08:18:17.823Z,96.08
2022-12-11T08:20:45.134Z,95.84
2022-12-11T08:23:12.475Z,95.75
2022-12-11T08:25:39.867Z,95.88
2022-12-11T08:28:07.149Z,96.09
2022-12-11T08:30:34.790Z,96.38
2022-12-11T08:33:02.117Z,96.23
2022-12-11T08:35:30.714Z,95.78
2022-12-11T08:37:58.066Z,96.34
2022-12-11T08:40:25.373Z,96.23
2022-12-11T08:42:52.675Z,95.75
2022-12-11T08:45:20.232Z,95.76
2022-12-11T08:47:47.456Z,95.97
2022-12-11T08:50:14.699Z,95.87
2022-12-11T08:52:43.404Z,95.79
2022-12-11T08:55:11.152Z,96.11
2022-12-11T08:57:40.186Z,95.98
2022-12-11T09:00:10.142Z,95.83
2022-12-11T09:02:37.644Z,96.19
2022-12-11T09:05:08.250Z,95.96
2022-12-11T09:07:36.831Z,95.78
2022-12-11T09:10:07.348Z,96.07
2022-12-11T09:12:35.510Z,95.73
2022-12-11T09:15:03.058Z,95.48
2022-12-11T09:17:31.384Z,95.74
2022-12-11T09:19:58.580Z,95.79
2022-12-11T09:22:26.048Z,95.64
2022-12-11T09:24:53.352Z,95.41
2022-12-11T09:27:32.171Z,95.11
2022-12-11T09:29:59.431Z,95.14
2022-12-11T09:32:26.734Z,95.59
2022-12-11T09:34:54.120Z,95.66
2022-12-11T09:37:21.565Z,95.03
2022-12-11T09:39:48.974Z,95.35
2022-12-11T09:42:21.464Z,95.65
2022-12-11T09:44:53.130Z,95.84
2022-12-11T09:47:25.229Z,96.06
2022-12-11T09:50:03.170Z,95.67
2022-12-11T09:52:35.096Z,95.62
2022-12-11T09:55:10.465Z,95.71
2022-12-11T09:57:48.991Z,95.58
2022-12-11T10:00:26.653Z,95.45
2022-12-11T10:03:23.764Z,95.81
2022-12-11T10:06:02.655Z,95.76
2022-12-11T10:08:42.155Z,95.40
2022-12-11T10:11:33.420Z,95.35
2022-12-11T10:14:08.995Z,95.43
2022-12-11T10:16:41.376Z,95.00
2022-12-11T10:19:17.422Z,95.14
2022-12-11T10:21:45.747Z,94.81
2022-12-11T10:24:48.933Z,94.75
2022-12-11T10:27:16.877Z,94.86
2022-12-11T10:29:44.245Z,95.14
2022-12-11T10:32:22.133Z,95.15
2022-12-11T10:34:54.720Z,94.51
2022-12-11T10:37:22.064Z,94.72
2022-12-11T10:39:49.365Z,94.56
2022-12-11T10:42:19.776Z,95.14
2022-12-11T10:44:58.557Z,95.09
2022-12-11T10:47:28.162Z,94.77
2022-12-11T10:49:58.391Z,94.69
2022-12-11T10:52:28.331Z,94.50
2022-12-11T10:54:59.507Z,94.98
2022-12-11T10:57:32.338Z,95.20
2022-12-11T11:00:02.908Z,94.69
2022-12-11T11:02:36.035Z,95.33
2022-12-11T11:05:13.566Z,94.71
2022-12-11T11:07:41.314Z,95.40
2022-12-11T11:10:16.607Z,94.73
2022-12-11T11:12:46.542Z,94.89
2022-12-11T11:15:15.737Z,95.36
2022-12-11T11:17:54.480Z,94.81
2022-12-11T11:20:24.112Z,94.78
2022-12-11T11:22:54.396Z,94.70
2022-12-11T11:25:23.746Z,94.42
2022-12-11T11:27:54.154Z,94.64
2022-12-11T11:30:23.816Z,94.80
2022-12-11T11:32:55.556Z,94.56
2022-12-11T11:35:25.782Z,94.70
2022-12-11T11:38:04.722Z,94.97
2022-12-11T11:40:40.436Z,94.71
2022-12-11T11:43:16.470Z,94.95
2022-12-11T11:45:51.744Z,95.21
2022-12-11T11:48:36.695Z,95.19
2022-12-11T11:51:15.947Z,95.01
2022-12-11T11:53:48.611Z,94.57
2022-12-11T11:56:24.145Z,95.21
2022-12-11T11:59:02.547Z,95.22
2022-12-11T12:01:30.562Z,95.26
2022-12-11T12:04:01.651Z,94.93
2022-12-11T12:06:52.313Z,94.54
2022-12-11T12:09:33.866Z,94.56
2022-12-11T12:12:11.271Z,94.96
2022-12-11T12:14:54.277Z,94.74
2022-12-11T12:17:31.713Z,95.07
2022-12-11T12:20:10.764Z,95.00
2022-12-11T12:22:54.270Z,94.56
2022-12-11T12:25:29.600Z,94.50
2022-12-11T12:28:04.880Z,94.66
2022-12-11T12:30:45.520Z,94.93
2022-12-11T12:33:24.976Z,95.15
2022-12-11T12:35:57.000Z,94.47
2022-12-11T12:38:38.227Z,94.37
2022-12-11T12:41:15.817Z,94.45
2022-12-11T12:44:03.198Z,94.15
2022-12-11T12:46:49.298Z,94.13
2022-12-11T12:49:23.223Z,94.05
2022-12-11T12:51:53.137Z,94.45
2022-12-11T12:54:22.052Z,94.68
2022-12-11T12:56:49.949Z,94.56
2022-12-11T12:59:22.147Z,94.53
2022-12-11T13:01:55.289Z,94.95
2022-12-11T13:04:59.664Z,94.90
2022-12-11T13:07:31.052Z,95.06
2022-12-11T13:10:05.370Z,94.36
2022-12-11T13:12:41.034Z,94.67
2022-12-11T13:15:27.290Z,94.12
2022-12-11T13:17:55.642Z,94.60
2022-12-11T13:20:26.073Z,94.89
2022-12-11T13:23:17.437Z,95.17
2022-12-11T13:25:52.077Z,94.17
2022-12-11T13:28:31.787Z,94.93
2022-12-11T13:31:18.921Z,93.97
2022-12-11T13:33:48.831Z,94.64
2022-12-11T13:36:28.079Z,94.81
2022-12-11T13:39:00.765Z,95.12
2022-12-11T13:41:28.971Z,94.69
2022-12-11T13:43:58.093Z,95.00
2022-12-11T13:46:27.875Z,94.82
2022-12-11T13:49:01.087Z,94.25
2022-12-11T13:51:30.964Z,94.74
2022-12-11T13:54:17.072Z,94.45
2022-12-11T13:56:55.773Z,94.12
2022-12-11T13:59:27.251Z,95.22
2022-12-11T14:01:58.148Z,94.91
2022-12-11T14:04:28.265Z,95.12
2022-12-11T14:06:57.409Z,94.60
2022-12-11T14:09:28.131Z,94.90
2022-12-11T14:11:57.496Z,94.63
2022-12-11T14:14:31.167Z,94.93
2022-12-11T14:16:58.628Z,94.42
2022-12-11T14:19:26.089Z,95.17
2022-12-11T14:21:59.392Z,94.66
2022-12-11T14:24:29.015Z,94.60
2022-12-11T14:26:56.933Z,94.84
2022-12-11T14:29:26.393Z,94.91
2022-12-11T14:31:54.408Z,94.65
2022-12-11T14:34:26.507Z,94.68
2022-12-11T14:36:55.081Z,94.86
2022-12-11T14:39:27.920Z,94.88
2022-12-11T14:42:03.832Z,94.49
2022-12-11T14:44:37.078Z,95.14
2022-12-11T14:47:11.402Z,95.29
2022-12-11T14:49:45.844Z,95.19
2022-12-11T14:52:17.837Z,94.98
2022-12-11T14:54:51.287Z,95.32
2022-12-11T14:57:23.550Z,95.33
2022-12-11T14:59:53.154Z,95.45
2022-12-11T15:02:25.528Z,95.04
2022-12-11T15:05:05.394Z,94.72
2022-12-11T15:07:33.181Z,95.12
2022-12-11T15:10:00.444Z,95.14
2022-12-11T15:12:29.100Z,94.85
2022-12-11T15:15:00.926Z,94.67
2022-12-11T15:17:31.527Z,94.66
2022-12-11T15:20:05.945Z,95.19
2022-12-11T15:22:33.677Z,95.15
2022-12-11T15:25:01.617Z,94.89
2022-12-11T15:27:37.660Z,95.32
2022-12-11T15:30:26.956Z,94.91
2022-12-11T15:33:03.782Z,95.04
2022-12-11T15:35:31.162Z,95.29
2022-12-11T15:37:58.916Z,95.78
2022-12-11T15:40:27.325Z,95.19
2022-12-11T15:42:57.132Z,95.53
2022-12-11T15:45:26.189Z,95.72
2022-12-11T15:47:53.515Z,95.82
2022-12-11T15:50:22.646Z,95.89
2022-12-11T15:52:51.792Z,95.45
2022-12-11T15:55:20.062Z,95.73
2022-12-11T15:57:50.551Z,95.78
2022-12-11T16:00:24.226Z,96.00
2022-12-11T16:02:52.201Z,96.09
2022-12-11T16:05:19.889Z,95.84
2022-12-11T16:07:47.550Z,96.26
2022-12-11T16:10:17.755Z,95.65
2022-12-11T16:12:45.486Z,95.62
2022-12-11T16:15:21.451Z,96.18
2022-12-11T16:18:00.516Z,96.25
2022-12-11T16:20:27.820Z,96.21
2022-12-11T16:22:55.065Z,96.02
2022-12-11T16:25:22.343Z,95.81
2022-12-11T16:27:50.735Z,96.09
2022-12-11T16:30:18.114Z,96.07
2022-12-11T16:32:45.547Z,96.56
2022-12-11T16:35:14.425Z,96.59
2022-12-11T16:37:42.085Z,96.30
2022-12-11T16:40:10.991Z,95.62
2022-12-11T16:42:38.497Z,96.02
2022-12-11T16:45:09.241Z,95.97
2022-12-11T16:47:36.937Z,95.90
2022-12-11T16:50:05.593Z,95.94
2022-12-11T16:52:34.587Z,96.29
2022-12-11T16:55:01.982Z,96.03
2022-12-11T16:57:31.009Z,96.60
2022-12-11T16:59:58.383Z,96.83
2022-12-11T17:02:25.820Z,96.23
2022-12-11T17:04:54.149Z,97.16
2022-12-11T17:07:21.656Z,96.51
2022-12-11T17:09:50.696Z,96.17
2022-12-11T17:12:18.015Z,97.11
2022-12-11T17:14:45.699Z,97.03
2022-12-11T17:17:12.907Z,96.99
2022-12-11T17:19:40.406Z,96.48
2022-12-11T17:22:07.577Z,96.44
2022-12-11T17:24:34.783Z,96.94
2022-12-11T17:27:03.447Z,96.47
2022-12-11T17:29:31.538Z,96.93
2022-12-11T17:31:58.977Z,96.82
2022-12-11T17:34:26.327Z,97.24
2022-12-11T17:36:53.725Z,97.14
2022-12-11T17:39:20.964Z,97.20
2022-12-11T17:41:48.331Z,97.17
2022-12-11T17:44:17.057Z,96.96
2022-12-11T17:46:44.405Z,97.27
2022-12-11T17:49:11.788Z,97.46
2022-12-11T17:51:39.116Z,97.78
2022-12-11T17:54:06.469Z,97.07
2022-12-11T17:56:36.286Z,97.08
2022-12-11T17:59:04.244Z,97.84
2022-12-11T18:01:33.421Z,97.88
2022-12-11T18:04:01.986Z,97.10
2022-12-11T18:06:30.096Z,97.54
2022-12-11T18:08:57.811Z,97.88
2022-12-11T18:11:25.500Z,98.08
2022-12-11T18:13:53.886Z,97.81
2022-12-11T18:16:24.643Z,97.64
2022-12-11T18:18:56.704Z,97.92
2022-12-11T18:21:25.613Z,97.63
2022-12-11T18:23:52.999Z,98.18
2022-12-11T18:26:21.091Z,97.76
2022-12-11T18:28:49.330Z,97.61
2022-12-11T18:31:17.734Z,98.27
2022-12-11T18:33:46.142Z,98.06
2022-12-11T18:36:19.666Z,97.92
2022-12-11T18:38:53.472Z,98.19
2022-12-11T18:41:23.503Z,98.35
2022-12-11T18:43:54.920Z,98.32
2022-12-11T18:46:24.765Z,98.61
2022-12-11T18:48:58.394Z,98.19
2022-12-11T18:51:30.425Z,98.42
2022-12-11T18:53:59.964Z,97.92
2022-12-11T18:56:29.573Z,98.04
2022-12-11T18:59:00.139Z,98.28
2022-12-11T19:01:29.439Z,98.17
2022-12-11T19:04:03.535Z,97.73
2022-12-11T19:06:35.626Z,98.30
2022-12-11T19:09:05.204Z,98.01
2022-12-11T19:11:35.075Z,97.91
2022-12-11T19:14:05.472Z,98.29
2022-12-11T19:16:37.520Z,98.41
2022-12-11T19:19:07.223Z,98.12
2022-12-11T19:21:40.048Z,98.70
2022-12-11T19:24:07.726Z,98.66
2022-12-11T19:26:35.369Z,98.24
2022-12-11T19:29:02.660Z,98.67
2022-12-11T19:31:32.060Z,98.34
2022-12-11T19:34:00.082Z,98.46
2022-12-11T19:36:29.243Z,98.19
2022-12-11T19:39:02.095Z,98.44
2022-12-11T19:41:30.648Z,98.59
2022-12-11T19:44:09.655Z,98.82
2022-12-11T19:46:37.249Z,98.40
2022-12-11T19:49:05.077Z,98.34
2022-12-11T19:51:39.624Z,98.52
2022-12-11T19:54:12.287Z,99.08
2022-12-11T19:56:42.335Z,98.87
2022-12-11T19:59:16.611Z,99.16
2022-12-11T20:01:46.835Z,99.02
2022-12-11T20:04:19.239Z,98.92
2022-12-11T20:06:47.437Z,98.60
2022-12-11T20:09:16.964Z,98.79
2022-12-11T20:11:47.659Z,98.94
2022-12-11T20:14:21.568Z,98.58
2022-12-11T20:19:40.061Z,98.72
2022-12-11T20:22:07.718Z,98.69
2022-12-11T20:24:38.114Z,99.34
2022-12-11T20:27:05.777Z,99.38
2022-12-11T20:29:34.888Z,98.79
2022-12-11T20:32:02.210Z,99.49
2022-12-11T20:34:29.631Z,99.06
2022-12-11T20:36:56.975Z,99.23
2022-12-11T20:39:24.521Z,98.96
2022-12-11T20:41:57.607Z,98.85
2022-12-11T20:44:24.859Z,99.41
2022-12-11T20:46:52.270Z,99.43
2022-12-11T20:49:21.088Z,98.92
2022-12-11T20:51:50.354Z,99.41
2022-12-11T20:54:17.615Z,99.20
2022-12-11T20:56:46.257Z,99.05
2022-12-11T20:59:18.509Z,99.12
2022-12-11T21:01:46.177Z,99.01
2022-12-11T21:04:13.547Z,99.66
2022-12-11T21:06:42.236Z,99.25
2022-12-11T21:09:12.879Z,99.42
2022-12-11T21:11:40.268Z,99.66
2022-12-11T21:14:07.742Z,99.59
2022-12-11T21:16:52.571Z,99.86
2022-12-11T21:19:22.683Z,99.55
2022-12-11T21:21:50.938Z,99.86
2022-12-11T21:24:38.419Z,99.64
2022-12-11T21:27:23.140Z,99.98
2022-12-11T21:29:51.054Z,99.84
2022-12-11T21:32:30.061Z,99.32
2022-12-11T21:35:01.154Z,99.57
2022-12-11T21:37:41.997Z,99.75
2022-12-11T21:40:10.486Z,99.43
2022-12-11T21:42:37.735Z,99.59
2022-12-11T21:47:55.104Z,99.78
2022-12-11T21:50:22.577Z,99.71
2022-12-11T21:52:50.381Z,99.63
2022-12-11T21:55:18.314Z,100.00
2022-12-11T21:57:45.586Z,99.62
2022-12-11T22:00:13.772Z,99.97
2022-12-11T22:02:41.464Z,99.99
2022-12-11T22:05:10.672Z,99.84
2022-12-11T22:07:39.022Z,99.75
2022-12-11T22:10:07.074Z,99.87
2022-12-11T22:12:34.401Z,100.00
2022-12-11T22:15:01.706Z,99.93
2022-12-11T22:17:31.766Z,99.68
2022-12-11T22:19:59.316Z,99.79
2022-12-11T22:22:27.898Z,100.00
2022-12-11T22:24:55.097Z,100.00
2022-12-11T22:27:24.026Z,99.98
2022-12-11T22:29:51.601Z,100.00
2022-12-11T22:32:18.998Z,99.97
2022-12-11T22:34:46.190Z,100.00
2022-12-11T22:37:13.337Z,100.00
2022-12-11T22:39:42.129Z,100.00
2022-12-11T22:42:09.403Z,100.00
2022-12-11T22:44:36.773Z,100.00
2022-12-11T22:47:04.156Z,100.00
2022-12-11T22:49:32.834Z,100.00
2022-12-11T22:52:00.033Z,100.00
2022-12-11T22:54:27.306Z,100.00
2022-12-11T22:56:55.933Z,100.00
2022-12-11T22:59:23.488Z,100.00
2022-12-11T23:01:50.871Z,100.00
2022-12-11T23:04:18.359Z,100.00
2022-12-11T23:06:45.577Z,100.00
2022-12-11T23:09:12.918Z,100.00
2022-12-11T23:11:41.057Z,100.00
2022-12-11T23:14:17.773Z,100.00
2022-12-11T23:16:45.125Z,100.00
2022-12-11T23:19:13.165Z,100.00
2022-12-11T23:21:40.744Z,100.00
2022-12-11T23:24:08.750Z,100.00
2022-12-11T23:26:36.844Z,100.00
2022-12-11T23:29:05.703Z,100.00
2022-12-11T23:31:34.586Z,100.00
2022-12-11T23:34:01.895Z,100.00
2022-12-11T23:36:29.853Z,100.00
2022-12-11T23:38:57.191Z,100.00
2022-12-11T23:41:25.392Z,100.00
2022-12-11T23:43:52.852Z,100.00
2022-12-11T23:46:22.002Z,100.00
2022-12-11T23:48:51.420Z,100.00
2022-12-11T23:51:23.107Z,100.00
2022-12-11T23:53:53.433Z,100.00
2022-12-11T23:56:23.524Z,100.00
2022-12-11T23:58:50.919Z,100.00
